createdAt,value
2017-08-25T08:19:04.615Z,23.09
2017-08-25T08:25:22.535Z,22.94
2017-08-25T08:31:56.350Z,22.71
2017-08-25T08:37:08.546Z,22.52
2017-08-25T09:24:19.228Z,23.52
2017-08-25T09:29:55.138Z,23.75
2017-08-25T09:32:50.213Z,23.77
2017-08-25T09:35:45.457Z,23.83
2017-08-25T09:38:40.754Z,23.86
2017-08-25T09:41:35.954Z,23.94
2017-08-25T09:44:31.569Z,24.07
2017-08-25T09:47:27.295Z,24.23
2017-08-25T09:50:22.662Z,24.36
2017-08-25T09:53:18.294Z,24.46
2017-08-25T09:56:13.699Z,24.44
2017-08-25T09:59:08.653Z,24.36
2017-08-25T10:02:03.706Z,24.34
2017-08-25T10:04:58.648Z,24.31
2017-08-25T10:07:53.756Z,24.21
2017-08-25T10:10:48.716Z,24.09
2017-08-25T10:13:43.836Z,23.97
2017-08-25T10:16:38.974Z,23.83
2017-08-25T10:19:33.972Z,23.71
2017-08-25T10:22:28.818Z,23.58
2017-08-25T10:25:23.579Z,23.47
2017-08-25T10:28:18.469Z,23.35
2017-08-25T10:31:13.189Z,23.27
2017-08-25T10:34:07.970Z,23.27
2017-08-25T10:37:02.815Z,23.29
2017-08-25T10:41:05.363Z,23.38
2017-08-25T10:43:50.695Z,23.52
2017-08-25T10:46:45.228Z,23.70
2017-08-25T10:49:39.970Z,23.79
2017-08-25T10:52:34.765Z,23.85
2017-08-25T10:55:29.762Z,23.88
2017-08-25T10:58:47.271Z,23.87
2017-08-25T11:01:35.154Z,23.88
2017-08-25T11:04:29.743Z,23.89
2017-08-25T11:10:19.329Z,23.85
2017-08-25T11:13:14.413Z,23.83
2017-08-25T11:16:09.251Z,23.81
2017-08-25T11:19:04.001Z,23.77
2017-08-25T11:21:58.478Z,23.72
2017-08-25T11:27:48.113Z,23.58
2017-08-25T11:30:42.849Z,23.54
2017-08-25T11:33:37.033Z,23.50
2017-08-25T11:36:31.459Z,23.48
2017-08-25T11:39:25.976Z,23.44
2017-08-25T11:42:20.481Z,23.43
2017-08-25T11:45:15.509Z,23.37
2017-08-25T11:48:10.579Z,23.31
2017-08-25T11:51:05.679Z,23.25
2017-08-25T11:54:00.764Z,23.23
2017-08-25T11:56:55.998Z,23.19
2017-08-25T11:59:50.891Z,23.16
2017-08-25T12:02:45.656Z,23.13
2017-08-25T12:05:40.286Z,23.10
2017-08-25T12:08:35.911Z,23.07
2017-08-25T12:11:31.495Z,23.05
2017-08-25T12:14:26.840Z,23.02
2017-08-25T12:17:22.267Z,23.01
2017-08-25T12:20:17.833Z,22.99
2017-08-25T12:23:13.310Z,22.98
2017-08-25T12:26:08.193Z,22.97
2017-08-25T12:29:03.477Z,22.95
2017-08-25T12:34:53.810Z,22.87
2017-08-25T12:37:49.490Z,22.85
2017-08-25T12:40:45.207Z,22.85
2017-08-25T12:43:40.891Z,22.83
2017-08-25T12:49:32.127Z,22.80
2017-08-25T12:52:27.627Z,22.77
2017-08-25T12:55:22.761Z,22.77
2017-08-25T13:01:12.819Z,22.79
2017-08-25T13:04:08.099Z,22.80
2017-08-25T13:07:03.390Z,22.79
2017-08-25T13:09:58.519Z,22.79
2017-08-25T13:12:52.989Z,22.78
2017-08-25T13:15:48.129Z,22.79
2017-08-25T13:18:43.567Z,22.80
2017-08-25T13:24:34.568Z,22.81
2017-08-25T13:27:29.844Z,22.81
2017-08-25T13:30:25.075Z,22.82
2017-08-25T13:33:20.231Z,22.79
2017-08-25T13:36:15.411Z,22.77
2017-08-25T13:39:10.914Z,22.76
2017-08-25T13:42:06.373Z,22.73
2017-08-25T13:45:01.845Z,22.72
2017-08-25T13:47:57.245Z,22.71
2017-08-25T13:50:52.115Z,22.69
2017-08-25T13:56:41.252Z,22.67
2017-08-25T13:59:35.516Z,22.67
2017-08-25T14:02:30.900Z,22.68
2017-08-25T14:05:26.364Z,22.67
2017-08-25T14:08:21.732Z,22.66
2017-08-25T14:11:17.042Z,22.67
2017-08-25T14:17:06.919Z,22.64
2017-08-25T14:20:02.374Z,22.64
2017-08-25T14:22:57.160Z,22.64
2017-08-25T14:25:52.545Z,22.64
2017-08-25T14:28:48.247Z,22.65
2017-08-25T14:31:43.798Z,22.65
2017-08-25T14:34:39.350Z,22.66
2017-08-25T14:37:35.100Z,22.67
2017-08-25T14:40:30.714Z,22.66
2017-08-25T14:43:26.295Z,22.65
2017-08-25T14:46:21.785Z,22.66
2017-08-25T14:49:17.373Z,22.64
2017-08-25T14:52:12.844Z,22.63
2017-08-25T14:55:08.056Z,22.62
2017-08-25T14:58:03.184Z,22.61
2017-08-25T15:00:58.174Z,22.60
2017-08-25T15:03:53.191Z,22.59
2017-08-25T15:09:43.482Z,22.57
2017-08-25T15:12:38.661Z,22.58
2017-08-25T15:15:33.871Z,22.58
2017-08-25T15:18:29.358Z,22.59
2017-08-25T15:24:20.035Z,22.57
2017-08-25T15:27:15.461Z,22.57
2017-08-25T15:30:10.937Z,22.57
2017-08-25T15:33:06.123Z,22.57
2017-08-25T15:36:01.200Z,22.57
2017-08-25T15:38:56.417Z,22.58
2017-08-25T15:41:51.268Z,22.58
2017-08-25T15:47:41.645Z,22.57
2017-08-25T15:50:36.719Z,22.56
2017-08-25T15:53:31.532Z,22.56
2017-08-25T15:56:25.622Z,22.56
2017-08-25T15:59:20.576Z,22.56
2017-08-25T16:02:15.876Z,22.57
2017-08-25T16:05:11.131Z,22.56
2017-08-25T16:08:06.507Z,22.55
2017-08-25T16:11:01.619Z,22.55
2017-08-25T16:13:56.952Z,22.55
2017-08-25T16:16:52.214Z,22.55
2017-08-25T16:19:47.566Z,22.54
2017-08-25T16:22:42.840Z,22.53
2017-08-25T16:25:38.133Z,22.52
2017-08-25T16:28:33.416Z,22.50
2017-08-25T16:31:28.755Z,22.49
2017-08-25T16:34:24.005Z,22.48
2017-08-25T16:37:19.152Z,22.47
2017-08-25T16:40:14.371Z,22.46
2017-08-25T16:43:09.191Z,22.46
2017-08-25T16:46:03.902Z,22.46
2017-08-25T16:48:58.789Z,22.45
2017-08-25T16:51:53.781Z,22.45
2017-08-25T16:54:48.853Z,22.44
2017-08-25T16:57:43.975Z,22.43
2017-08-25T17:00:39.016Z,22.42
2017-08-25T17:03:34.600Z,22.40
2017-08-25T17:06:30.155Z,22.38
2017-08-25T17:09:25.524Z,22.37
2017-08-25T17:12:20.683Z,22.36
2017-08-25T17:15:15.800Z,22.34
2017-08-25T17:18:10.755Z,22.32
2017-08-25T17:21:05.797Z,22.31
2017-08-25T17:24:00.756Z,22.30
2017-08-25T17:26:55.574Z,22.28
2017-08-25T17:29:50.297Z,22.26
2017-08-25T17:32:45.573Z,22.24
2017-08-25T17:35:40.289Z,22.21
2017-08-25T17:38:35.801Z,22.19
2017-08-25T17:41:31.263Z,22.16
2017-08-25T17:44:26.566Z,22.14
2017-08-25T17:47:21.940Z,22.11
2017-08-25T17:50:17.109Z,22.08
2017-08-25T17:53:12.283Z,22.05
2017-08-25T17:56:07.869Z,22.03
2017-08-25T17:59:02.883Z,21.98
2017-08-25T18:01:57.866Z,21.94
2017-08-25T18:04:52.524Z,21.90
2017-08-25T18:07:47.988Z,21.85
2017-08-25T18:10:43.440Z,21.81
2017-08-25T18:13:39.008Z,21.77
2017-08-25T18:16:34.536Z,21.73
2017-08-25T18:19:30.032Z,21.68
2017-08-25T18:22:25.505Z,21.64
2017-08-25T18:25:20.743Z,21.59
2017-08-25T18:28:16.024Z,21.53
2017-08-25T18:31:11.406Z,21.49
2017-08-25T18:37:02.513Z,21.37
2017-08-25T18:39:58.029Z,21.33
2017-08-25T18:42:53.482Z,21.29
2017-08-25T18:45:48.845Z,21.23
2017-08-25T18:48:44.094Z,21.18
2017-08-25T18:51:39.391Z,21.12
2017-08-25T18:54:34.649Z,21.07
2017-08-25T18:57:29.955Z,21.02
2017-08-25T19:00:24.475Z,20.99
2017-08-25T19:03:18.956Z,20.95
2017-08-25T19:06:13.328Z,20.91
2017-08-25T19:09:07.992Z,20.86
2017-08-25T19:12:03.050Z,20.83
2017-08-25T19:14:57.741Z,20.80
2017-08-25T19:17:52.250Z,20.77
2017-08-25T19:27:33.970Z,21.03
2017-08-25T19:30:18.342Z,21.18
2017-08-25T19:33:12.867Z,21.19
2017-08-25T19:36:07.847Z,21.10
2017-08-25T19:41:58.173Z,20.89
2017-08-25T19:50:54.980Z,20.89
2017-08-25T20:06:48.928Z,21.36
2017-08-25T20:09:32.884Z,21.38
2017-08-25T20:12:27.088Z,21.27
2017-08-25T20:23:38.968Z,21.08
2017-08-25T20:37:41.334Z,21.11
2017-08-25T20:40:25.542Z,21.12
2017-08-25T21:18:21.638Z,21.17
2017-08-25T21:21:04.360Z,21.14
2017-08-25T22:06:53.986Z,20.88
